Terminal Aerodrome Forecast
Issued by NWS

Home | Current Version | Previous Version | Graphics & Text | Print | Product List | Glossary On
Versions: 1 2 3 4 5 6 7 8 9 10 11 12 13 14 15 16 17 18 19 20 21
000
FTUS43 KLSX 221500 AAA
TAFSUS
TAF AMD
KSUS 221505Z 2215/2312 19010KT P6SM SCT025 OVC050
     FM222100 19012KT P6SM VCSH OVC035
     FM230900 18010KT 5SM -SHRA SCT009 OVC025=

USA.gov is the U.S. government's official web portal to all federal, state and local government web resources and services.